createdAt,value
2022-12-18T00:00:07.381Z,60.21
2022-12-18T00:03:01.989Z,69.99
2022-12-18T00:05:30.257Z,67.00
2022-12-18T00:07:58.279Z,52.99
2022-12-18T00:10:26.297Z,49.14
2022-12-18T00:12:54.362Z,51.46
2022-12-18T00:15:22.384Z,53.97
2022-12-18T00:17:50.374Z,55.83
2022-12-18T00:20:22.917Z,57.35
2022-12-18T00:22:50.938Z,60.21
2022-12-18T00:25:19.267Z,68.11
2022-12-18T00:27:47.334Z,64.01
2022-12-18T00:30:16.059Z,50.71
2022-12-18T00:32:44.116Z,49.84
2022-12-18T00:35:12.393Z,51.51
2022-12-18T00:37:40.452Z,55.05
2022-12-18T00:40:09.411Z,56.51
2022-12-18T00:42:57.023Z,58.38
2022-12-18T00:45:30.937Z,59.63
2022-12-18T00:47:59.192Z,61.08
2022-12-18T00:50:27.834Z,61.52
2022-12-18T00:52:55.838Z,67.96
2022-12-18T00:55:24.070Z,68.15
2022-12-18T00:57:53.588Z,52.67
2022-12-18T01:00:22.183Z,47.51
2022-12-18T01:02:50.840Z,50.09
2022-12-18T01:05:19.754Z,52.49
2022-12-18T01:07:47.896Z,55.73
2022-12-18T01:10:16.283Z,56.42
2022-12-18T01:12:44.366Z,58.17
2022-12-18T01:15:14.412Z,58.95
2022-12-18T01:17:42.689Z,59.68
2022-12-18T01:20:14.013Z,60.50
2022-12-18T01:22:42.084Z,60.44
2022-12-18T01:25:10.270Z,68.37
2022-12-18T01:27:38.343Z,66.98
2022-12-18T01:30:07.460Z,50.04
2022-12-18T01:32:35.508Z,47.90
2022-12-18T01:35:04.748Z,50.25
2022-12-18T01:37:32.838Z,52.85
2022-12-18T01:40:00.901Z,55.80
2022-12-18T01:42:28.973Z,56.89
2022-12-18T01:45:05.356Z,58.54
2022-12-18T01:47:33.377Z,58.34
2022-12-18T01:50:11.934Z,59.85
2022-12-18T01:52:43.725Z,59.41
2022-12-18T01:55:13.642Z,60.07
2022-12-18T01:57:42.526Z,61.01
2022-12-18T02:00:16.652Z,61.76
2022-12-18T02:02:46.206Z,71.25
2022-12-18T02:05:24.664Z,65.81
2022-12-18T02:08:11.752Z,48.83
2022-12-18T02:11:01.322Z,48.08
2022-12-18T02:13:36.476Z,51.74
2022-12-18T02:16:25.707Z,53.78
2022-12-18T02:19:00.392Z,55.56
2022-12-18T02:22:11.722Z,57.14
2022-12-18T02:24:49.629Z,56.97
2022-12-18T02:27:19.572Z,58.64
2022-12-18T02:29:57.854Z,59.47
2022-12-18T02:32:31.869Z,59.61
2022-12-18T02:35:02.925Z,60.40
2022-12-18T02:37:33.546Z,64.91
2022-12-18T02:40:05.709Z,69.52
2022-12-18T02:42:34.421Z,53.42
2022-12-18T02:45:02.965Z,48.85
2022-12-18T02:47:35.504Z,51.25
2022-12-18T02:50:19.314Z,53.01
2022-12-18T02:53:17.670Z,56.16
2022-12-18T02:56:16.857Z,58.27
2022-12-18T02:59:06.900Z,59.60
2022-12-18T03:01:55.219Z,60.72
2022-12-18T03:04:40.822Z,69.00
2022-12-18T03:07:16.686Z,55.95
2022-12-18T03:09:50.491Z,46.77
2022-12-18T03:12:23.994Z,48.75
2022-12-18T03:15:17.845Z,52.20
2022-12-18T03:17:53.083Z,55.68
2022-12-18T03:20:23.610Z,57.88
2022-12-18T03:22:58.661Z,58.22
2022-12-18T03:25:29.049Z,59.66
2022-12-18T03:27:59.858Z,66.63
2022-12-18T03:30:30.924Z,57.93
2022-12-18T03:33:25.147Z,47.25
2022-12-18T03:35:56.285Z,50.31
2022-12-18T03:38:24.804Z,52.06
2022-12-18T03:41:01.414Z,54.49
2022-12-18T03:43:56.402Z,55.67
2022-12-18T03:46:39.805Z,56.80
2022-12-18T03:49:30.688Z,58.36
2022-12-18T03:52:27.211Z,60.01
2022-12-18T03:54:59.183Z,69.44
2022-12-18T03:57:31.344Z,62.69
2022-12-18T04:00:13.039Z,50.21
2022-12-18T04:02:56.784Z,49.01
2022-12-18T04:05:34.440Z,50.57
2022-12-18T04:08:03.674Z,52.58
2022-12-18T04:10:32.364Z,55.36
2022-12-18T04:13:03.919Z,55.45
2022-12-18T04:15:36.029Z,57.89
2022-12-18T04:18:04.949Z,60.94
2022-12-18T04:20:39.152Z,69.36
2022-12-18T04:23:07.194Z,51.51
2022-12-18T04:25:35.690Z,46.69
2022-12-18T04:28:09.477Z,49.91
2022-12-18T04:30:39.336Z,52.81
2022-12-18T04:33:12.446Z,54.81
2022-12-18T04:35:41.542Z,59.08
2022-12-18T04:38:11.026Z,61.57
2022-12-18T04:40:40.301Z,66.64
2022-12-18T04:43:15.763Z,53.29
2022-12-18T04:45:43.883Z,48.20
2022-12-18T04:48:11.947Z,51.29
2022-12-18T04:50:40.478Z,52.42
2022-12-18T04:53:09.058Z,56.72
2022-12-18T04:55:38.141Z,57.24
2022-12-18T04:58:06.903Z,59.41
2022-12-18T05:00:34.886Z,59.49
2022-12-18T05:03:03.671Z,69.04
2022-12-18T05:05:32.292Z,62.49
2022-12-18T05:08:01.207Z,46.85
2022-12-18T05:10:33.456Z,46.34
2022-12-18T05:13:05.839Z,49.90
2022-12-18T05:15:34.851Z,52.48
2022-12-18T05:18:04.846Z,54.29
2022-12-18T05:20:32.899Z,55.42
2022-12-18T05:23:00.926Z,56.90
2022-12-18T05:25:29.176Z,57.89
2022-12-18T05:27:57.529Z,62.88
2022-12-18T05:30:26.155Z,71.19
2022-12-18T05:32:54.920Z,54.89
2022-12-18T05:35:23.118Z,47.97
2022-12-18T05:37:51.210Z,50.32
2022-12-18T05:40:19.394Z,53.86
2022-12-18T05:42:47.431Z,55.95
2022-12-18T05:45:15.473Z,57.31
2022-12-18T05:47:43.500Z,62.31
2022-12-18T05:50:11.501Z,67.54
2022-12-18T05:52:39.507Z,53.06
2022-12-18T05:55:07.881Z,47.39
2022-12-18T05:57:35.865Z,49.73
2022-12-18T06:00:04.845Z,53.78
2022-12-18T06:02:40.414Z,56.10
2022-12-18T06:05:08.984Z,57.04
2022-12-18T06:07:37.049Z,57.33
2022-12-18T06:10:05.618Z,62.26
2022-12-18T06:12:34.682Z,65.91
2022-12-18T06:15:02.842Z,52.12
2022-12-18T06:17:34.202Z,48.50
2022-12-18T06:20:02.467Z,51.08
2022-12-18T06:22:33.213Z,53.70
2022-12-18T06:25:01.239Z,55.37
2022-12-18T06:27:29.779Z,56.29
2022-12-18T06:29:57.919Z,58.74
2022-12-18T06:32:26.044Z,61.01
2022-12-18T06:34:55.004Z,68.23
2022-12-18T06:37:27.230Z,60.72
2022-12-18T06:39:55.362Z,49.36
2022-12-18T06:42:24.340Z,48.90
2022-12-18T06:44:52.688Z,53.06
2022-12-18T06:47:20.767Z,55.55
2022-12-18T06:49:48.758Z,60.68
2022-12-18T06:52:16.790Z,65.61
2022-12-18T06:54:44.773Z,58.84
2022-12-18T06:57:12.809Z,47.00
2022-12-18T06:59:40.839Z,48.28
2022-12-18T07:02:13.776Z,50.86
2022-12-18T07:04:42.018Z,54.22
2022-12-18T07:07:10.011Z,56.62
2022-12-18T07:09:38.069Z,57.66
2022-12-18T07:12:06.211Z,65.28
2022-12-18T07:14:34.221Z,64.10
2022-12-18T07:17:02.523Z,48.32
2022-12-18T07:19:31.186Z,47.36
2022-12-18T07:22:00.867Z,50.22
2022-12-18T07:24:29.551Z,53.29
2022-12-18T07:26:57.603Z,55.06
2022-12-18T07:29:25.742Z,58.06
2022-12-18T07:31:53.825Z,58.72
2022-12-18T07:34:21.920Z,58.70
2022-12-18T07:36:49.934Z,59.56
2022-12-18T07:39:17.987Z,69.21
2022-12-18T07:42:05.911Z,63.41
2022-12-18T07:44:34.601Z,47.74
2022-12-18T07:47:03.955Z,47.64
2022-12-18T07:49:33.561Z,51.52
2022-12-18T07:52:02.795Z,53.30
2022-12-18T07:54:30.858Z,54.40
2022-12-18T07:56:58.929Z,56.53
2022-12-18T07:59:27.410Z,57.79
2022-12-18T08:01:55.592Z,58.37
2022-12-18T08:04:23.809Z,59.27
2022-12-18T08:06:52.367Z,64.00
2022-12-18T08:09:20.486Z,67.10
2022-12-18T08:11:48.501Z,50.57
2022-12-18T08:14:16.504Z,48.19
2022-12-18T08:16:44.772Z,51.04
2022-12-18T08:19:12.933Z,53.45
2022-12-18T08:21:41.297Z,55.05
2022-12-18T08:24:11.021Z,58.21
2022-12-18T08:26:39.222Z,59.67
2022-12-18T08:29:07.245Z,59.85
2022-12-18T08:31:35.429Z,62.39
2022-12-18T08:34:03.656Z,71.14
2022-12-18T08:36:31.701Z,58.01
2022-12-18T08:38:59.743Z,48.52
2022-12-18T08:41:28.454Z,49.78
2022-12-18T08:44:15.347Z,52.91
2022-12-18T08:46:45.037Z,54.65
2022-12-18T08:49:13.408Z,57.45
2022-12-18T08:51:41.534Z,59.10
2022-12-18T08:54:12.752Z,59.16
2022-12-18T08:56:40.776Z,59.08
2022-12-18T08:59:15.802Z,66.01
2022-12-18T09:01:48.432Z,64.98
2022-12-18T09:04:16.761Z,48.98
2022-12-18T09:06:44.814Z,48.27
2022-12-18T09:09:13.066Z,51.08
2022-12-18T09:11:41.091Z,53.31
2022-12-18T09:14:10.917Z,54.32
2022-12-18T09:16:39.260Z,54.75
2022-12-18T09:19:07.465Z,54.96
2022-12-18T09:21:37.397Z,56.08
2022-12-18T09:24:08.886Z,56.86
2022-12-18T09:26:38.148Z,59.28
2022-12-18T09:29:08.445Z,60.03
2022-12-18T09:31:37.542Z,66.64
2022-12-18T09:34:05.598Z,59.43
2022-12-18T09:36:34.211Z,46.76
2022-12-18T09:39:07.598Z,47.27
2022-12-18T09:41:51.849Z,49.64
2022-12-18T09:44:26.002Z,52.16
2022-12-18T09:47:21.856Z,53.74
2022-12-18T09:50:32.942Z,55.48
2022-12-18T09:53:07.800Z,55.86
2022-12-18T09:55:44.345Z,56.71
2022-12-18T09:58:16.647Z,57.60
2022-12-18T10:00:44.785Z,58.18
2022-12-18T10:03:16.741Z,59.92
2022-12-18T10:06:06.467Z,66.47
2022-12-18T10:08:40.996Z,64.00
2022-12-18T10:11:34.146Z,48.41
2022-12-18T10:14:22.757Z,45.06
2022-12-18T10:16:53.863Z,47.42
2022-12-18T10:19:50.467Z,50.11
2022-12-18T10:22:42.795Z,52.18
2022-12-18T10:25:24.030Z,54.42
2022-12-18T10:27:59.656Z,54.98
2022-12-18T10:30:27.861Z,56.80
2022-12-18T10:33:02.144Z,58.67
2022-12-18T10:35:30.412Z,62.50
2022-12-18T10:38:04.635Z,67.20
2022-12-18T10:40:33.618Z,52.83
2022-12-18T10:43:14.249Z,47.18
2022-12-18T10:45:43.402Z,48.72
2022-12-18T10:48:25.169Z,50.51
2022-12-18T10:53:44.133Z,53.47
2022-12-18T10:56:13.554Z,56.38
2022-12-18T10:58:41.998Z,57.14
2022-12-18T11:01:14.861Z,59.20
2022-12-18T11:04:08.607Z,60.94
2022-12-18T11:06:55.069Z,66.46
2022-12-18T11:09:26.084Z,58.33
2022-12-18T11:11:58.045Z,47.48
2022-12-18T11:14:30.036Z,47.58
2022-12-18T11:20:01.124Z,53.07
2022-12-18T11:22:32.852Z,53.84
2022-12-18T11:25:30.682Z,55.30
2022-12-18T11:27:57.680Z,55.80
2022-12-18T11:30:25.713Z,56.63
2022-12-18T11:33:35.316Z,61.20
2022-12-18T11:36:06.956Z,65.91
2022-12-18T11:38:41.948Z,50.26
2022-12-18T11:41:44.449Z,46.18
2022-12-18T11:44:21.144Z,48.25
2022-12-18T11:46:57.030Z,50.52
2022-12-18T11:49:34.679Z,53.40
2022-12-18T11:52:39.285Z,54.53
2022-12-18T11:55:54.410Z,54.69
2022-12-18T11:58:49.049Z,57.59
2022-12-18T12:02:02.338Z,57.71
2022-12-18T12:04:47.170Z,57.60
2022-12-18T12:07:27.744Z,57.76
2022-12-18T12:10:14.555Z,58.48
2022-12-18T12:13:01.220Z,58.96
2022-12-18T12:15:41.184Z,59.28
2022-12-18T12:18:27.781Z,60.76
2022-12-18T12:21:31.087Z,70.93
2022-12-18T12:24:24.033Z,55.48
2022-12-18T12:27:16.326Z,46.98
2022-12-18T12:30:00.358Z,49.75
2022-12-18T12:32:37.092Z,51.08
2022-12-18T12:35:09.622Z,53.01
2022-12-18T12:38:15.676Z,54.92
2022-12-18T12:41:06.492Z,55.47
2022-12-18T12:46:38.149Z,56.46
2022-12-18T12:49:15.423Z,57.47
2022-12-18T12:51:48.355Z,58.23
2022-12-18T12:54:22.046Z,60.20
2022-12-18T12:57:10.874Z,60.03
2022-12-18T13:00:04.827Z,69.15
2022-12-18T13:03:14.338Z,61.50
2022-12-18T13:05:42.355Z,44.00
2022-12-18T13:08:12.394Z,45.24
2022-12-18T13:10:44.035Z,48.48
2022-12-18T13:13:17.256Z,50.89
2022-12-18T13:16:07.696Z,52.21
2022-12-18T13:18:36.504Z,53.62
2022-12-18T13:21:21.276Z,54.85
2022-12-18T13:23:50.668Z,56.83
2022-12-18T13:26:23.218Z,57.84
2022-12-18T13:28:57.944Z,59.82
2022-12-18T13:31:41.878Z,57.93
2022-12-18T13:34:27.524Z,57.66
2022-12-18T13:37:18.095Z,57.74
2022-12-18T13:39:46.287Z,58.51
2022-12-18T13:42:35.590Z,58.87
2022-12-18T13:45:43.874Z,62.24
2022-12-18T13:48:19.397Z,65.39
2022-12-18T13:50:56.490Z,48.98
2022-12-18T13:53:29.965Z,46.96
2022-12-18T13:55:58.645Z,49.39
2022-12-18T13:58:26.767Z,50.84
2022-12-18T14:00:55.471Z,53.07
2022-12-18T14:03:29.422Z,54.26
2022-12-18T14:06:04.231Z,55.15
2022-12-18T14:08:40.923Z,56.14
2022-12-18T14:11:21.398Z,56.47
2022-12-18T14:13:51.120Z,57.15
2022-12-18T14:16:19.837Z,57.73
2022-12-18T14:19:07.296Z,57.72
2022-12-18T14:21:49.204Z,58.23
2022-12-18T14:24:21.190Z,59.01
2022-12-18T14:26:51.368Z,59.88
2022-12-18T14:29:27.114Z,59.56
2022-12-18T14:32:33.452Z,59.79
2022-12-18T14:35:14.271Z,60.42
2022-12-18T14:37:42.255Z,60.88
2022-12-18T14:40:14.238Z,61.23
2022-12-18T14:42:43.203Z,60.73
2022-12-18T14:45:39.113Z,61.31
2022-12-18T14:48:21.712Z,61.42
2022-12-18T14:51:16.015Z,62.03
2022-12-18T14:53:53.716Z,71.37
2022-12-18T14:56:25.748Z,61.89
2022-12-18T14:59:00.283Z,46.61
2022-12-18T15:01:38.193Z,47.51
2022-12-18T15:04:24.418Z,50.35
2022-12-18T15:07:23.934Z,52.74
2022-12-18T15:10:25.018Z,53.84
2022-12-18T15:13:03.682Z,55.83
2022-12-18T15:15:35.126Z,56.83
2022-12-18T15:18:12.832Z,57.46
2022-12-18T15:20:56.351Z,57.66
2022-12-18T15:23:25.954Z,57.77
2022-12-18T15:26:00.006Z,58.12
2022-12-18T15:28:34.664Z,57.82
2022-12-18T15:31:15.018Z,58.01
2022-12-18T15:33:55.005Z,59.15
2022-12-18T15:36:26.804Z,60.28
2022-12-18T15:39:05.032Z,59.82
2022-12-18T15:41:37.266Z,60.00
2022-12-18T15:44:26.548Z,60.87
2022-12-18T15:46:58.057Z,61.45
2022-12-18T15:49:26.485Z,61.58
2022-12-18T15:52:02.911Z,61.77
2022-12-18T15:54:49.670Z,69.57
2022-12-18T15:57:26.693Z,62.46
2022-12-18T15:59:59.279Z,46.21
2022-12-18T16:02:29.692Z,46.90
2022-12-18T16:04:58.187Z,49.88
2022-12-18T16:07:29.161Z,52.37
2022-12-18T16:09:59.421Z,54.23
2022-12-18T16:12:30.466Z,54.92
2022-12-18T16:14:58.562Z,55.93
2022-12-18T16:17:26.605Z,56.31
2022-12-18T16:19:55.045Z,56.79
2022-12-18T16:22:29.043Z,57.74
2022-12-18T16:24:58.229Z,58.16
2022-12-18T16:27:27.126Z,58.14
2022-12-18T16:29:55.365Z,58.54
2022-12-18T16:32:24.465Z,59.20
2022-12-18T16:34:52.810Z,59.50
2022-12-18T16:37:20.907Z,59.96
2022-12-18T16:39:48.978Z,60.24
2022-12-18T16:42:20.657Z,59.98
2022-12-18T16:44:50.567Z,60.82
2022-12-18T16:47:19.881Z,60.89
2022-12-18T16:49:51.839Z,61.66
2022-12-18T16:52:21.037Z,62.18
2022-12-18T16:54:49.175Z,69.94
2022-12-18T16:57:20.191Z,63.39
2022-12-18T16:59:49.988Z,47.61
2022-12-18T17:02:23.620Z,47.11
2022-12-18T17:04:55.561Z,49.83
2022-12-18T17:07:24.921Z,52.11
2022-12-18T17:09:54.868Z,54.01
2022-12-18T17:12:23.914Z,55.34
2022-12-18T17:14:51.987Z,56.77
2022-12-18T17:17:22.641Z,57.57
2022-12-18T17:19:52.554Z,58.14
2022-12-18T17:22:23.513Z,58.13
2022-12-18T17:24:51.734Z,57.91
2022-12-18T17:27:19.975Z,57.72
2022-12-18T17:29:48.993Z,58.18
2022-12-18T17:32:18.024Z,59.72
2022-12-18T17:34:46.344Z,60.04
2022-12-18T17:37:14.772Z,60.11
2022-12-18T17:39:43.174Z,60.29
2022-12-18T17:42:14.841Z,61.16
2022-12-18T17:44:44.502Z,61.48
2022-12-18T17:47:14.181Z,61.81
2022-12-18T17:49:42.224Z,67.67
2022-12-18T17:52:10.923Z,65.61
2022-12-18T17:54:41.582Z,48.88
2022-12-18T17:57:10.554Z,47.04
2022-12-18T17:59:38.695Z,49.95
2022-12-18T18:02:07.499Z,51.86
2022-12-18T18:04:36.456Z,53.48
2022-12-18T18:07:04.707Z,55.15
2022-12-18T18:09:32.830Z,55.64
2022-12-18T18:12:19.726Z,56.24
2022-12-18T18:14:48.197Z,56.26
2022-12-18T18:17:16.197Z,57.29
2022-12-18T18:19:46.806Z,58.11
2022-12-18T18:22:19.143Z,58.98
2022-12-18T18:24:48.234Z,59.50
2022-12-18T18:27:16.441Z,59.88
2022-12-18T18:29:45.171Z,60.17
2022-12-18T18:32:13.322Z,60.50
2022-12-18T18:34:42.085Z,60.69
2022-12-18T18:37:12.112Z,62.37
2022-12-18T18:39:40.197Z,69.38
2022-12-18T18:42:08.451Z,53.70
2022-12-18T18:44:36.995Z,46.05
2022-12-18T18:47:06.974Z,48.40
2022-12-18T18:49:37.917Z,51.07
2022-12-18T18:52:07.311Z,53.36
2022-12-18T18:54:35.576Z,54.71
2022-12-18T18:57:20.561Z,55.71
2022-12-18T18:59:49.259Z,56.35
2022-12-18T19:02:18.127Z,56.38
2022-12-18T19:04:47.124Z,57.78
2022-12-18T19:07:30.158Z,58.07
2022-12-18T19:10:04.411Z,59.28
2022-12-18T19:12:53.376Z,60.19
2022-12-18T19:15:23.035Z,60.39
2022-12-18T19:17:51.198Z,61.21
2022-12-18T19:20:19.524Z,61.92
2022-12-18T19:22:55.126Z,67.93
2022-12-18T19:25:40.723Z,63.96
2022-12-18T19:28:21.577Z,47.04
2022-12-18T19:30:57.259Z,47.27
2022-12-18T19:33:45.057Z,50.48
2022-12-18T19:36:28.394Z,52.87
2022-12-18T19:39:00.031Z,54.09
2022-12-18T19:41:31.410Z,55.68
2022-12-18T19:44:02.225Z,56.82
2022-12-18T19:46:37.150Z,57.41
2022-12-18T19:49:11.960Z,57.28
2022-12-18T19:51:46.296Z,58.68
2022-12-18T19:54:17.273Z,60.23
2022-12-18T19:56:46.909Z,60.71
2022-12-18T19:59:14.986Z,60.77
2022-12-18T20:01:43.381Z,61.18
2022-12-18T20:04:11.550Z,68.15
2022-12-18T20:06:51.632Z,63.85
2022-12-18T20:09:20.516Z,47.64
2022-12-18T20:11:49.874Z,48.00
2022-12-18T20:14:23.163Z,51.00
2022-12-18T20:16:52.645Z,53.19
2022-12-18T20:19:22.515Z,55.02
2022-12-18T20:21:50.737Z,56.52
2022-12-18T20:24:19.354Z,57.70
2022-12-18T20:26:47.465Z,58.44
2022-12-18T20:29:15.512Z,59.60
2022-12-18T20:31:43.631Z,59.89
2022-12-18T20:34:12.270Z,59.83
2022-12-18T20:36:41.178Z,59.92
2022-12-18T20:39:10.942Z,59.99
2022-12-18T20:41:40.473Z,60.21
2022-12-18T20:44:21.904Z,60.50
2022-12-18T20:46:58.266Z,61.16
2022-12-18T20:49:27.337Z,61.70
2022-12-18T20:51:58.149Z,61.70
2022-12-18T20:54:27.882Z,61.71
2022-12-18T20:56:56.985Z,61.74
2022-12-18T20:59:26.153Z,61.79
2022-12-18T21:01:54.713Z,69.37
2022-12-18T21:04:24.076Z,65.25
2022-12-18T21:07:00.770Z,48.14
2022-12-18T21:09:37.680Z,47.40
2022-12-18T21:12:36.543Z,50.37
2022-12-18T21:15:16.500Z,52.68
2022-12-18T21:17:45.433Z,55.13
2022-12-18T21:20:17.917Z,56.15
2022-12-18T21:22:49.463Z,57.75
2022-12-18T21:25:17.722Z,58.52
2022-12-18T21:27:45.754Z,58.82
2022-12-18T21:30:15.259Z,59.73
2022-12-18T21:32:43.366Z,60.73
2022-12-18T21:35:11.513Z,61.45
2022-12-18T21:37:42.235Z,62.22
2022-12-18T21:40:14.493Z,69.44
2022-12-18T21:43:01.436Z,61.37
2022-12-18T21:45:29.459Z,46.21
2022-12-18T21:47:57.706Z,47.55
2022-12-18T21:50:25.818Z,50.58
2022-12-18T21:52:53.833Z,52.36
2022-12-18T21:55:21.889Z,54.16
2022-12-18T21:57:50.411Z,55.22
2022-12-18T22:00:19.750Z,56.94
2022-12-18T22:02:49.272Z,58.05
2022-12-18T22:05:37.685Z,58.39
2022-12-18T22:08:07.116Z,58.99
2022-12-18T22:10:36.588Z,59.99
2022-12-18T22:13:06.863Z,60.14
2022-12-18T22:15:35.000Z,61.45
2022-12-18T22:18:03.264Z,61.45
2022-12-18T22:20:31.262Z,64.29
2022-12-18T22:23:04.370Z,69.40
2022-12-18T22:25:35.345Z,50.85
2022-12-18T22:28:25.638Z,47.21
2022-12-18T22:30:59.654Z,50.40
2022-12-18T22:33:28.600Z,52.48
2022-12-18T22:35:56.785Z,54.66
2022-12-18T22:38:25.042Z,56.30
2022-12-18T22:40:53.057Z,57.34
2022-12-18T22:43:21.530Z,57.85
2022-12-18T22:45:49.621Z,59.04
2022-12-18T22:48:18.001Z,60.00
2022-12-18T22:50:47.243Z,60.46
2022-12-18T22:53:17.191Z,60.88
2022-12-18T22:55:45.306Z,61.42
2022-12-18T22:58:13.364Z,61.73
2022-12-18T23:00:41.415Z,62.11
2022-12-18T23:03:09.956Z,67.96
2022-12-18T23:05:38.230Z,63.10
2022-12-18T23:08:06.266Z,46.55
2022-12-18T23:10:37.780Z,46.06
2022-12-18T23:13:05.831Z,48.95
2022-12-18T23:15:34.257Z,51.48
2022-12-18T23:18:02.272Z,52.99
2022-12-18T23:20:30.783Z,54.56
2022-12-18T23:22:58.802Z,55.36
2022-12-18T23:25:26.840Z,56.05
2022-12-18T23:27:54.867Z,56.25
2022-12-18T23:30:22.926Z,56.55
2022-12-18T23:32:51.249Z,56.72
2022-12-18T23:35:19.424Z,57.24
2022-12-18T23:37:58.750Z,58.24
2022-12-18T23:40:29.590Z,58.72
2022-12-18T23:43:00.342Z,59.01
2022-12-18T23:45:28.400Z,64.98
2022-12-18T23:47:56.496Z,57.81
2022-12-18T23:50:28.764Z,43.68
2022-12-18T23:53:04.820Z,36.41
2022-12-18T23:55:39.927Z,35.80
2022-12-18T23:58:20.241Z,39.84
